Champion, NE (69023)

5:18 PM MDT on April 25, 2017 (GMT -0600)
West 12th Street | | Change Station

Elev 3287 ft 40.52 °N, 101.65 °W | Updated 9 minutes ago

Overcast
Overcast
52.2 °F
Feels Like 52.2 °F
N
1.2
Wind Variable Wind from NW
Gusts 6.8 mph

Today
High -- | Low -- °F
--% Chance of Precip.
Yesterday
High -- | Low -- °F
Precip. -- in
Pressure 29.60 in
Visibility 10.0 miles
Clouds Overcast 2700 ft
Dew Point 42 °F
Humidity 69%
Rainfall 0.09 in
Snow Depth Not available.
5:53 AM 7:36 PM
Waning Crescent, 0% visible
METAR KIML 252253Z AUTO 05017KT 10SM OVC027 11/05 A2961 RMK AO2 SLP024 T01060050 $
Pressure 29.60 in
Visibility 10.0 miles
Clouds Overcast 2700 ft
Dew Point 42 °F
Humidity 69%
Rainfall 0.09 in
Snow Depth Not available.
5:53 AM 7:36 PM
Waning Crescent, 0% visible
METAR KIML 252253Z AUTO 05017KT 10SM OVC027 11/05 A2961 RMK AO2 SLP024 T01060050 $

Get Severe Weather Alerts

Thanks for signing up!

Be on the lookout for a verification email in your inbox.

You'll start receiving the daily forecast at 8 AM.

×

10-Day Weather Forecast

Almanac

Astronomy

Apr. 25, 2017 Rise Set
Actual Time
Civil Twilight
Nautical Twilight
Astronomical Twilight
Moon
Length of Visible Light
Length of Day
Tomorrow will be .
, % of the Moon is Illuminated

Today's Extremes

State Highs State Lows

Community

WunderPhotos

WunderBlog® & News

Nearby

Air Quality

  Air Quality AQ Index Pollutant
Not available.

Snow Depth

Station Depth Elevation

Earthquake Activity

City Distance Mag. Time & Date
Minimum magnitude displayed is 2.5.

Coastal Water Temperatures

Place Temperature

Stations

Nearby Weather Stations

Station Location Temp. Windchill Dew Point Humidity Wind Precip. Elev Updated Type
                   

Watches & Warnings

There are currently no watches in effect.